createdAt,value
2023-02-11T00:01:34.382Z,1.09
2023-02-11T00:04:03.284Z,1.12
2023-02-11T00:06:33.506Z,1.29
2023-02-11T00:09:01.454Z,1.33
2023-02-11T00:11:30.619Z,1.27
2023-02-11T00:14:02.536Z,1.19
2023-02-11T00:16:32.007Z,1.24
2023-02-11T00:19:02.607Z,1.24
2023-02-11T00:21:30.390Z,1.20
2023-02-11T00:24:00.046Z,1.15
2023-02-11T00:26:36.380Z,1.03
2023-02-11T00:29:05.785Z,1.01
2023-02-11T00:31:34.488Z,1.09
2023-02-11T00:34:02.886Z,1.18
2023-02-11T00:36:30.528Z,1.05
2023-02-11T00:38:59.804Z,0.97
2023-02-11T00:41:29.408Z,1.09
2023-02-11T00:44:01.938Z,1.05
2023-02-11T00:46:30.327Z,1.10
2023-02-11T00:48:58.129Z,1.06
2023-02-11T00:51:27.391Z,0.87
2023-02-11T00:53:55.767Z,0.81
2023-02-11T00:56:24.308Z,0.76
2023-02-11T00:58:53.426Z,0.85
2023-02-11T01:01:21.853Z,0.82
2023-02-11T01:03:50.192Z,0.82
2023-02-11T01:06:17.872Z,0.72
2023-02-11T01:08:46.438Z,0.57
2023-02-11T01:11:18.086Z,0.38
2023-02-11T01:13:48.064Z,0.52
2023-02-11T01:16:17.469Z,0.57
2023-02-11T01:18:46.350Z,0.60
2023-02-11T01:21:14.860Z,0.53
2023-02-11T01:23:44.831Z,0.62
2023-02-11T01:26:13.355Z,0.61
2023-02-11T01:28:41.224Z,0.55
2023-02-11T01:31:08.840Z,0.55
2023-02-11T01:33:36.541Z,0.40
2023-02-11T01:36:07.835Z,0.57
2023-02-11T01:38:36.468Z,0.55
2023-02-11T01:41:07.413Z,0.56
2023-02-11T01:43:38.284Z,0.53
2023-02-11T01:46:21.254Z,0.46
2023-02-11T01:48:53.939Z,0.43
2023-02-11T01:51:27.431Z,0.49
2023-02-11T01:54:16.369Z,0.50
2023-02-11T01:57:07.333Z,0.49
2023-02-11T01:59:44.883Z,0.42
2023-02-11T02:02:15.234Z,0.37
2023-02-11T02:04:57.583Z,0.45
2023-02-11T02:07:39.641Z,0.46
2023-02-11T02:10:15.798Z,0.49
2023-02-11T02:12:43.993Z,0.43
2023-02-11T02:15:23.097Z,0.41
2023-02-11T02:18:20.597Z,0.36
2023-02-11T02:21:21.876Z,0.40
2023-02-11T02:24:21.073Z,0.40
2023-02-11T02:27:12.541Z,0.27
2023-02-11T02:29:46.524Z,0.35
2023-02-11T02:32:35.234Z,0.31
2023-02-11T02:35:30.977Z,0.30
2023-02-11T02:38:24.148Z,0.23
2023-02-11T02:41:21.088Z,0.17
2023-02-11T02:43:50.998Z,0.28
2023-02-11T02:46:24.360Z,0.24
2023-02-11T02:48:53.769Z,0.21
2023-02-11T02:51:27.668Z,0.23
2023-02-11T02:53:55.316Z,0.24
2023-02-11T02:56:49.182Z,0.22
2023-02-11T02:59:23.101Z,0.17
2023-02-11T03:02:03.500Z,0.13
2023-02-11T03:04:38.153Z,0.16
2023-02-11T03:07:26.179Z,0.13
2023-02-11T03:10:23.247Z,0.05
2023-02-11T03:12:54.095Z,-0.04
2023-02-11T03:15:25.342Z,-0.10
2023-02-11T03:17:57.378Z,-0.06
2023-02-11T03:20:28.447Z,-0.17
2023-02-11T03:23:03.063Z,-0.20
2023-02-11T03:25:37.313Z,-0.24
2023-02-11T03:28:25.338Z,-0.30
2023-02-11T03:31:10.898Z,-0.23
2023-02-11T03:33:54.830Z,-0.28
2023-02-11T03:36:32.915Z,-0.25
2023-02-11T03:39:04.266Z,-0.16
2023-02-11T03:41:34.301Z,-0.31
2023-02-11T03:44:03.362Z,-0.37
2023-02-11T03:46:36.870Z,-0.38
2023-02-11T03:49:09.366Z,-0.25
2023-02-11T03:51:38.120Z,-0.22
2023-02-11T03:54:14.941Z,-0.20
2023-02-11T03:56:51.350Z,-0.18
2023-02-11T03:59:19.569Z,-0.20
2023-02-11T04:01:47.350Z,-0.25
2023-02-11T04:04:15.640Z,-0.17
2023-02-11T04:06:43.588Z,-0.20
2023-02-11T04:09:12.757Z,-0.45
2023-02-11T04:11:40.412Z,-0.40
2023-02-11T04:14:07.990Z,-0.37
2023-02-11T04:16:36.016Z,-0.40
2023-02-11T04:19:04.244Z,-0.34
2023-02-11T04:21:32.261Z,-0.38
2023-02-11T04:24:00.257Z,-0.45
2023-02-11T04:26:28.313Z,-0.45
2023-02-11T04:28:55.904Z,-0.57
2023-02-11T04:31:24.158Z,-0.52
2023-02-11T04:33:52.203Z,-0.46
2023-02-11T04:36:20.421Z,-0.40
2023-02-11T04:38:48.856Z,-0.40
2023-02-11T04:41:16.371Z,-0.34
2023-02-11T04:43:44.057Z,-0.39
2023-02-11T04:46:11.826Z,-0.46
2023-02-11T04:48:39.429Z,-0.32
2023-02-11T04:51:07.092Z,-0.49
2023-02-11T04:53:35.231Z,-0.59
2023-02-11T04:56:03.260Z,-0.55
2023-02-11T04:58:31.196Z,-0.61
2023-02-11T05:01:10.328Z,-0.66
2023-02-11T05:03:38.665Z,-0.69
2023-02-11T05:06:07.090Z,-0.69
2023-02-11T05:08:34.807Z,-0.66
2023-02-11T05:11:02.517Z,-0.79
2023-02-11T05:13:31.195Z,-0.73
2023-02-11T05:15:59.497Z,-0.75
2023-02-11T05:18:28.234Z,-0.65
2023-02-11T05:20:55.871Z,-0.54
2023-02-11T05:23:23.498Z,-0.59
2023-02-11T05:25:51.722Z,-0.59
2023-02-11T05:28:19.510Z,-0.55
2023-02-11T05:30:47.206Z,-0.60
2023-02-11T05:33:15.323Z,-0.61
2023-02-11T05:35:43.307Z,-0.58
2023-02-11T05:38:11.168Z,-0.60
2023-02-11T05:40:40.344Z,-0.72
2023-02-11T05:43:08.405Z,-0.72
2023-02-11T05:45:36.938Z,-0.64
2023-02-11T05:48:04.671Z,-0.61
2023-02-11T05:50:32.334Z,-0.58
2023-02-11T05:53:00.585Z,-0.54
2023-02-11T05:55:28.358Z,-0.68
2023-02-11T05:57:56.379Z,-0.87
2023-02-11T06:00:24.339Z,-0.80
2023-02-11T06:02:52.673Z,-0.83
2023-02-11T06:05:20.801Z,-0.81
2023-02-11T06:07:48.836Z,-0.72
2023-02-11T06:10:16.315Z,-0.68
2023-02-11T06:12:44.917Z,-0.65
2023-02-11T06:15:13.037Z,-0.58
2023-02-11T06:17:41.156Z,-0.61
2023-02-11T06:20:10.700Z,-0.61
2023-02-11T06:22:38.445Z,-0.60
2023-02-11T06:25:07.411Z,-0.56
2023-02-11T06:27:35.063Z,-0.53
2023-02-11T06:30:03.153Z,-0.44
2023-02-11T06:32:46.730Z,-0.47
2023-02-11T06:35:15.160Z,-0.42
2023-02-11T06:37:43.172Z,-0.49
2023-02-11T06:40:11.699Z,-0.28
2023-02-11T06:42:39.702Z,-0.29
2023-02-11T06:45:09.778Z,-0.27
2023-02-11T06:47:38.234Z,-0.17
2023-02-11T06:50:08.761Z,-0.09
2023-02-11T06:52:36.835Z,-0.04
2023-02-11T06:55:05.279Z,0.03
2023-02-11T06:57:33.171Z,0.16
2023-02-11T07:00:01.197Z,0.25
2023-02-11T07:02:29.033Z,0.37
2023-02-11T07:04:57.481Z,0.44
2023-02-11T07:07:24.979Z,0.47
2023-02-11T07:09:52.942Z,0.70
2023-02-11T07:12:20.559Z,0.90
2023-02-11T07:14:48.155Z,0.90
2023-02-11T07:17:16.282Z,0.91
2023-02-11T07:19:44.139Z,1.13
2023-02-11T07:22:12.205Z,0.92
2023-02-11T07:24:40.804Z,0.94
2023-02-11T07:27:08.434Z,1.17
2023-02-11T07:29:36.106Z,1.49
2023-02-11T07:32:04.324Z,1.59
2023-02-11T07:34:33.228Z,1.63
2023-02-11T07:37:01.479Z,1.33
2023-02-11T07:39:29.571Z,1.68
2023-02-11T07:41:57.637Z,1.92
2023-02-11T07:44:26.159Z,2.06
2023-02-11T07:46:54.439Z,2.21
2023-02-11T07:49:22.131Z,2.24
2023-02-11T07:51:51.538Z,2.54
2023-02-11T07:54:19.771Z,2.77
2023-02-11T07:56:47.417Z,2.44
2023-02-11T07:59:15.198Z,2.02
2023-02-11T08:01:44.008Z,2.38
2023-02-11T08:04:12.488Z,2.99
2023-02-11T08:06:42.734Z,3.25
2023-02-11T08:09:15.322Z,3.42
2023-02-11T08:11:43.366Z,3.32
2023-02-11T08:14:12.484Z,3.52
2023-02-11T08:16:41.242Z,4.02
2023-02-11T08:19:15.600Z,4.50
2023-02-11T08:21:43.898Z,4.44
2023-02-11T08:24:12.551Z,4.43
2023-02-11T08:26:40.324Z,4.24
2023-02-11T08:29:14.300Z,4.44
2023-02-11T08:31:45.411Z,4.19
2023-02-11T08:34:14.762Z,4.43
2023-02-11T08:36:43.998Z,4.84
2023-02-11T08:39:20.795Z,5.10
2023-02-11T08:41:53.935Z,4.95
2023-02-11T08:44:23.030Z,4.43
2023-02-11T08:46:52.276Z,4.06
2023-02-11T08:49:20.621Z,4.44
2023-02-11T08:51:48.861Z,4.57
2023-02-11T08:54:16.702Z,5.18
2023-02-11T08:56:45.358Z,4.90
2023-02-11T08:59:15.546Z,4.83
2023-02-11T09:01:44.528Z,4.89
2023-02-11T09:04:13.089Z,5.17
2023-02-11T09:06:41.304Z,4.81
2023-02-11T09:09:13.707Z,5.47
2023-02-11T09:11:43.075Z,6.85
2023-02-11T09:14:22.622Z,7.33
2023-02-11T09:16:51.919Z,8.31
2023-02-11T09:19:21.021Z,8.21
2023-02-11T09:21:49.296Z,8.09
2023-02-11T09:24:17.338Z,8.77
2023-02-11T09:26:46.128Z,8.62
2023-02-11T09:29:14.253Z,9.90
2023-02-11T09:31:42.653Z,9.19
2023-02-11T09:34:11.519Z,10.08
2023-02-11T09:36:40.870Z,9.84
2023-02-11T09:39:20.556Z,10.09
2023-02-11T09:42:03.833Z,7.94
2023-02-11T09:44:37.640Z,8.32
2023-02-11T09:47:24.141Z,8.37
2023-02-11T09:50:00.269Z,7.24
2023-02-11T09:52:48.318Z,8.80
2023-02-11T09:55:29.953Z,9.44
2023-02-11T09:57:58.973Z,9.70
2023-02-11T10:00:29.507Z,10.44
2023-02-11T10:03:20.742Z,10.56
2023-02-11T10:06:14.120Z,11.07
2023-02-11T10:09:17.227Z,11.14
2023-02-11T10:11:53.206Z,10.61
2023-02-11T10:14:39.726Z,9.92
2023-02-11T10:17:18.485Z,8.99
2023-02-11T10:20:17.186Z,8.92
2023-02-11T10:22:58.358Z,10.61
2023-02-11T10:25:39.429Z,11.57
2023-02-11T10:28:20.323Z,10.75
2023-02-11T10:31:34.493Z,11.47
2023-02-11T10:34:07.178Z,11.99
2023-02-11T10:36:38.283Z,11.67
2023-02-11T10:39:18.558Z,13.07
2023-02-11T10:42:01.080Z,13.41
2023-02-11T10:44:38.754Z,12.73
2023-02-11T10:47:19.321Z,12.69
2023-02-11T11:15:11.771Z,11.57
2023-02-11T11:17:40.222Z,12.58
2023-02-11T11:20:19.868Z,13.59
2023-02-11T11:22:49.813Z,13.38
2023-02-11T11:25:23.099Z,13.42
2023-02-11T11:27:55.290Z,14.07
2023-02-11T11:30:26.436Z,13.55
2023-02-11T11:32:54.942Z,13.26
2023-02-11T11:35:28.248Z,12.88
2023-02-11T11:38:02.038Z,13.06
2023-02-11T11:40:33.091Z,13.60
2023-02-11T11:43:14.808Z,13.80
2023-02-11T11:46:00.267Z,12.24
2023-02-11T11:48:50.945Z,12.60
2023-02-11T11:51:19.885Z,12.07
2023-02-11T11:54:01.392Z,11.59
2023-02-11T11:56:33.776Z,10.85
2023-02-11T11:59:07.040Z,10.46
2023-02-11T12:02:02.063Z,10.85
2023-02-11T12:04:39.233Z,11.11
2023-02-11T12:07:12.819Z,12.12
2023-02-11T12:10:14.662Z,12.67
2023-02-11T12:13:18.427Z,11.90
2023-02-11T12:15:55.261Z,13.05
2023-02-11T12:18:56.777Z,13.30
2023-02-11T12:21:43.069Z,14.24
2023-02-11T12:24:48.083Z,14.82
2023-02-11T12:27:32.846Z,15.25
2023-02-11T12:30:13.407Z,15.09
2023-02-11T12:33:15.726Z,13.98
2023-02-11T12:35:58.678Z,13.76
2023-02-11T12:38:48.550Z,12.12
2023-02-11T12:42:04.098Z,11.29
2023-02-11T12:44:58.729Z,12.07
2023-02-11T12:47:35.890Z,13.71
2023-02-11T12:50:27.983Z,13.53
2023-02-11T12:53:14.178Z,14.56
2023-02-11T12:55:46.721Z,15.93
2023-02-11T12:58:29.721Z,16.39
2023-02-11T13:01:26.436Z,16.41
2023-02-11T13:04:08.642Z,17.16
2023-02-11T13:06:52.127Z,15.98
2023-02-11T13:09:43.985Z,16.71
2023-02-11T13:12:32.414Z,17.00
2023-02-11T13:15:07.146Z,17.24
2023-02-11T13:17:50.273Z,18.66
2023-02-11T13:20:18.748Z,16.22
2023-02-11T13:22:59.618Z,15.66
2023-02-11T13:25:33.516Z,16.10
2023-02-11T13:28:07.722Z,17.10
2023-02-11T13:30:39.441Z,17.78
2023-02-11T13:33:17.924Z,18.78
2023-02-11T13:35:51.185Z,17.74
2023-02-11T13:38:25.113Z,18.92
2023-02-11T13:41:23.516Z,19.27
2023-02-11T13:44:19.430Z,19.15
2023-02-11T13:46:50.575Z,18.20
2023-02-11T13:49:22.318Z,18.41
2023-02-11T13:51:51.407Z,19.06
2023-02-11T13:54:30.815Z,20.38
2023-02-11T13:57:20.865Z,21.96
2023-02-11T13:59:52.519Z,22.81
2023-02-11T14:02:55.328Z,22.84
2023-02-11T14:05:43.538Z,24.02
2023-02-11T14:08:30.042Z,22.89
2023-02-11T14:11:10.936Z,23.23
2023-02-11T14:13:47.714Z,23.68
2023-02-11T14:16:37.002Z,23.76
2023-02-11T14:19:06.863Z,22.89
2023-02-11T14:21:38.749Z,22.89
2023-02-11T14:24:07.100Z,23.75
2023-02-11T14:27:11.750Z,22.62
2023-02-11T14:29:47.751Z,22.40
2023-02-11T14:32:35.090Z,22.15
2023-02-11T14:35:18.557Z,21.87
2023-02-11T14:37:57.588Z,23.41
2023-02-11T14:40:35.335Z,24.29
2023-02-11T14:43:29.426Z,22.59
2023-02-11T14:45:59.324Z,21.94
2023-02-11T14:48:39.231Z,21.73
2023-02-11T14:51:10.570Z,20.76
2023-02-11T14:53:44.052Z,19.91
2023-02-11T14:56:26.970Z,21.17
2023-02-11T14:58:55.955Z,20.83
2023-02-11T15:01:35.582Z,22.14
2023-02-11T15:04:06.153Z,21.60
2023-02-11T15:06:49.668Z,21.58
2023-02-11T15:09:24.177Z,21.58
2023-02-11T15:11:53.395Z,21.94
2023-02-11T15:14:30.336Z,21.54
2023-02-11T15:17:06.299Z,21.60
2023-02-11T15:19:38.818Z,20.97
2023-02-11T15:22:18.627Z,19.51
2023-02-11T15:25:10.838Z,18.62
2023-02-11T15:27:43.886Z,16.74
2023-02-11T15:30:24.413Z,15.20
2023-02-11T15:32:58.693Z,13.75
2023-02-11T15:35:33.139Z,13.68
2023-02-11T15:38:01.653Z,13.14
2023-02-11T15:40:33.144Z,12.69
2023-02-11T15:43:09.206Z,12.57
2023-02-11T15:45:42.000Z,12.07
2023-02-11T15:48:18.874Z,11.70
2023-02-11T15:50:55.634Z,11.67
2023-02-11T15:53:38.012Z,11.44
2023-02-11T15:56:17.873Z,11.26
2023-02-11T15:58:49.804Z,11.34
2023-02-11T16:01:18.072Z,11.05
2023-02-11T16:03:50.927Z,10.94
2023-02-11T16:06:25.209Z,10.87
2023-02-11T16:09:12.436Z,10.67
2023-02-11T16:11:46.455Z,10.47
2023-02-11T16:14:39.578Z,10.42
2023-02-11T16:17:25.234Z,10.30
2023-02-11T16:19:54.305Z,10.09
2023-02-11T16:22:35.445Z,10.01
2023-02-11T16:25:03.335Z,9.92
2023-02-11T16:27:41.186Z,9.81
2023-02-11T16:30:28.172Z,9.76
2023-02-11T16:32:56.559Z,9.53
2023-02-11T16:35:24.753Z,9.41
2023-02-11T16:37:52.850Z,9.30
2023-02-11T16:40:21.579Z,9.21
2023-02-11T16:42:49.853Z,9.08
2023-02-11T16:45:18.151Z,9.02
2023-02-11T16:47:46.563Z,8.86
2023-02-11T16:50:23.384Z,8.77
2023-02-11T16:52:53.002Z,8.68
2023-02-11T16:55:22.268Z,8.65
2023-02-11T16:57:50.143Z,8.51
2023-02-11T17:00:19.254Z,8.43
2023-02-11T17:02:47.049Z,8.38
2023-02-11T17:05:20.853Z,8.27
2023-02-11T17:07:48.807Z,8.25
2023-02-11T17:10:21.749Z,8.14
2023-02-11T17:12:51.052Z,8.06
2023-02-11T17:15:19.204Z,7.97
2023-02-11T17:17:46.875Z,7.88
2023-02-11T17:20:16.096Z,7.80
2023-02-11T17:22:44.034Z,7.76
2023-02-11T17:25:12.313Z,7.70
2023-02-11T17:27:40.964Z,7.63
2023-02-11T17:30:10.045Z,7.47
2023-02-11T17:32:39.028Z,7.36
2023-02-11T17:35:07.598Z,7.43
2023-02-11T17:37:35.321Z,7.35
2023-02-11T17:40:03.940Z,7.40
2023-02-11T17:42:31.528Z,7.36
2023-02-11T17:44:59.033Z,7.21
2023-02-11T17:47:27.427Z,7.07
2023-02-11T17:49:54.912Z,7.03
2023-02-11T17:52:24.401Z,6.89
2023-02-11T17:54:52.079Z,6.95
2023-02-11T17:57:20.384Z,6.94
2023-02-11T17:59:47.879Z,6.89
2023-02-11T18:02:16.051Z,6.84
2023-02-11T18:04:44.367Z,6.87
2023-02-11T18:07:12.030Z,6.92
2023-02-11T18:09:40.992Z,6.91
2023-02-11T18:12:10.785Z,6.86
2023-02-11T18:14:40.632Z,6.68
2023-02-11T18:17:09.506Z,6.58
2023-02-11T18:19:37.691Z,6.63
2023-02-11T18:22:05.255Z,6.64
2023-02-11T18:24:33.708Z,6.55
2023-02-11T18:27:01.478Z,6.53
2023-02-11T18:29:29.737Z,6.37
2023-02-11T18:31:58.089Z,6.49
2023-02-11T18:34:26.847Z,6.49
2023-02-11T18:36:54.945Z,6.43
2023-02-11T18:39:24.411Z,6.34
2023-02-11T18:41:57.076Z,6.28
2023-02-11T18:44:27.135Z,6.32
2023-02-11T18:46:55.486Z,6.30
2023-02-11T18:49:23.581Z,6.24
2023-02-11T18:51:51.898Z,6.23
2023-02-11T18:54:19.786Z,6.18
2023-02-11T18:56:47.882Z,6.21
2023-02-11T18:59:15.564Z,6.10
2023-02-11T19:01:46.872Z,6.16
2023-02-11T19:04:20.132Z,6.15
2023-02-11T19:06:49.811Z,6.11
2023-02-11T19:09:19.918Z,6.09
2023-02-11T19:11:48.038Z,6.03
2023-02-11T19:14:22.528Z,6.05
2023-02-11T19:16:53.247Z,6.01
2023-02-11T19:19:23.264Z,6.12
2023-02-11T19:21:51.925Z,6.08
2023-02-11T19:24:20.326Z,6.18
2023-02-11T19:26:50.186Z,6.24
2023-02-11T19:29:18.282Z,6.06
2023-02-11T19:31:46.881Z,5.83
2023-02-11T19:34:16.665Z,5.68
2023-02-11T19:36:44.446Z,5.64
2023-02-11T19:39:12.725Z,5.53
2023-02-11T19:41:40.866Z,5.49
2023-02-11T19:44:09.972Z,5.61
2023-02-11T19:46:41.073Z,5.63
2023-02-11T19:49:10.104Z,5.53
2023-02-11T19:51:39.473Z,5.44
2023-02-11T19:54:08.426Z,5.45
2023-02-11T19:56:37.974Z,5.42
2023-02-11T19:59:09.065Z,5.50
2023-02-11T20:01:37.334Z,5.36
2023-02-11T20:04:06.010Z,5.35
2023-02-11T20:06:34.795Z,5.25
2023-02-11T20:09:06.644Z,5.25
2023-02-11T20:11:35.624Z,5.20
2023-02-11T20:14:04.343Z,5.19
2023-02-11T20:16:47.024Z,5.06
2023-02-11T20:19:18.374Z,5.00
2023-02-11T20:21:48.620Z,4.91
2023-02-11T20:24:18.881Z,4.88
2023-02-11T20:26:48.605Z,4.82
2023-02-11T20:29:17.609Z,4.70
2023-02-11T20:31:45.781Z,4.46
2023-02-11T20:34:17.061Z,4.54
2023-02-11T20:36:51.532Z,4.63
2023-02-11T20:39:22.370Z,4.63
2023-02-11T20:41:51.261Z,4.78
2023-02-11T20:44:23.834Z,4.62
2023-02-11T20:46:52.156Z,4.43
2023-02-11T20:49:23.692Z,4.37
2023-02-11T20:51:53.361Z,4.39
2023-02-11T20:54:23.491Z,4.46
2023-02-11T20:56:53.718Z,4.52
2023-02-11T20:59:22.024Z,4.38
2023-02-11T21:01:55.841Z,4.34
2023-02-11T21:04:25.613Z,4.32
2023-02-11T21:06:56.725Z,4.29
2023-02-11T21:09:28.086Z,4.19
2023-02-11T21:11:55.994Z,4.30
2023-02-11T21:14:25.886Z,4.35
2023-02-11T21:16:54.191Z,4.32
2023-02-11T21:19:21.894Z,4.39
2023-02-11T21:21:50.440Z,4.34
2023-02-11T21:24:18.486Z,4.27
2023-02-11T21:26:46.106Z,4.21
2023-02-11T21:29:14.043Z,4.25
2023-02-11T21:31:42.551Z,4.25
2023-02-11T21:34:10.801Z,4.31
2023-02-11T21:36:39.174Z,4.17
2023-02-11T21:39:07.083Z,4.05
2023-02-11T21:41:35.619Z,3.99
2023-02-11T21:44:06.120Z,3.88
2023-02-11T21:46:33.665Z,3.98
2023-02-11T21:49:01.880Z,4.06
2023-02-11T21:51:30.266Z,4.01
2023-02-11T21:54:03.070Z,3.98
2023-02-11T21:56:32.159Z,3.94
2023-02-11T21:59:00.706Z,3.97
2023-02-11T22:01:31.160Z,3.91
2023-02-11T22:04:00.176Z,3.84
2023-02-11T22:06:32.949Z,3.83
2023-02-11T22:09:07.479Z,3.65
2023-02-11T22:11:36.310Z,3.67
2023-02-11T22:14:04.794Z,3.65
2023-02-11T22:16:33.446Z,3.69
2023-02-11T22:19:02.566Z,3.71
2023-02-11T22:21:30.985Z,3.66
2023-02-11T22:23:59.069Z,3.69
2023-02-11T22:26:28.650Z,3.77
2023-02-11T22:28:56.588Z,3.64
2023-02-11T22:31:30.688Z,3.65
2023-02-11T22:34:00.180Z,3.66
2023-02-11T22:36:30.838Z,3.61
2023-02-11T22:39:11.548Z,3.62
2023-02-11T22:41:42.372Z,3.62
2023-02-11T22:44:11.135Z,3.85
2023-02-11T22:46:39.198Z,3.85
2023-02-11T22:49:07.858Z,3.80
2023-02-11T22:51:35.641Z,3.69
2023-02-11T22:54:06.558Z,3.52
2023-02-11T22:56:35.331Z,3.63
2023-02-11T22:59:07.927Z,3.61
2023-02-11T23:01:35.543Z,3.52
2023-02-11T23:04:05.009Z,3.48
2023-02-11T23:06:33.083Z,3.54
2023-02-11T23:09:01.587Z,3.48
2023-02-11T23:11:31.336Z,3.40
2023-02-11T23:13:59.428Z,3.45
2023-02-11T23:16:34.132Z,3.38
2023-02-11T23:19:09.151Z,3.36
2023-02-11T23:21:39.560Z,3.46
2023-02-11T23:24:12.676Z,3.49
2023-02-11T23:26:41.751Z,3.35
2023-02-11T23:29:10.568Z,3.29
2023-02-11T23:31:41.316Z,3.28
2023-02-11T23:34:09.885Z,3.25
2023-02-11T23:36:37.848Z,3.21
2023-02-11T23:39:05.941Z,3.16
2023-02-11T23:41:33.882Z,3.09
2023-02-11T23:44:01.765Z,3.09
2023-02-11T23:46:29.364Z,3.14
2023-02-11T23:48:58.203Z,3.07
2023-02-11T23:51:25.916Z,3.01
2023-02-11T23:53:56.176Z,3.10
2023-02-11T23:56:27.112Z,3.08
2023-02-11T23:58:57.360Z,3.05
